EPSC/SZZ METAR and TAF weather

Enter ICAO airport designator
Station Type Date Time Source
EPSC METAR 2019/02/20 07:00 UTC NOAA

EPSC 200700Z 27008KT 9999 -SHRA FEW008 SCT018TCU BKN021 05/03 Q1016


Station Type Date Time Source
EPSC Decoded METAR 2019/02/20 07:00 UTC NOAA

Szczecin, Poland (EPSC) 53-24N 014-37E 3M
Feb 20, 2019 - 02:00 AM EST / 2019.02.20 0700 UTC
Wind: from the W (270 degrees) at 9 MPH (8 KT):0
Visibility: greater than 7 mile(s):0
Sky conditions: mostly cloudy
Weather: light rain showers; Towering cumulus clouds observed
Temperature: 41 F (5 C)
Dew Point: 37 F (3 C)
Relative Humidity: 86%
Pressure (altimeter): 30.00 in. Hg (1016 hPa)
ob: EPSC 200700Z 27008KT 9999 -SHRA FEW008 SCT018TCU BKN021 05/03 Q1016
cycle: 7

Station Type Date Time Source
EPSC TAF 2019/02/20 06:33 UTC NOAA

TAF EPSC 200530Z 2006/2106 27010KT 9999 BKN020 PROB40
TEMPO 2006/2012 27015G26KT -SHRA BKN014TCU
BECMG 2020/2023 4000 -RA BR BKN005 BKN012


Example: see airport list